Dongtai, China
Current Conditions -  °F | °C
As of 5:00 PM on Thursday 23 Oct 2014 (Local Time) from ZSNJ Reporting Station
Clear Clear  
Wind Chill: 73°   Ceiling: Unl
Heat Index: 73°   Visibility: 6mi
Dew Point: 46°   Wind: 2mph
Humidity: 38%   Direction: 180°S
Pressure: 30.03"   Gusts: NA
Location:  32.85°N, 120.3°E
Report Text: ZSNJ 230900Z 18001MPS CAVOK 23/08 Q1017 NOSIG
Loading
Personal Weather Stations






























Interactive Weather Map
Tropical Storm Tracking
New forecast layout! Learn more

10-Day Weather Forecast

Advertisements
Track Severe Weather on mobile